createdAt,value
2023-03-02T00:01:05.077Z,60
2023-03-02T00:16:05.178Z,65
2023-03-02T00:31:05.255Z,79
2023-03-02T00:46:04.566Z,77
2023-03-02T01:01:04.600Z,66
2023-03-02T01:16:05.133Z,61
2023-03-02T01:31:05.556Z,60
2023-03-02T01:46:05.207Z,54
2023-03-02T02:01:05.307Z,59
2023-03-02T02:16:05.142Z,69
2023-03-02T02:31:05.045Z,71
2023-03-02T02:46:04.691Z,77
2023-03-02T03:01:05.281Z,71
2023-03-02T03:16:04.944Z,70
2023-03-02T03:31:04.980Z,68
2023-03-02T03:46:05.562Z,69
2023-03-02T04:01:04.777Z,62
2023-03-02T04:16:05.037Z,62
2023-03-02T04:31:05.193Z,59
2023-03-02T04:46:05.396Z,53
2023-03-02T05:01:04.980Z,54
2023-03-02T05:16:05.032Z,54
2023-03-02T05:31:05.529Z,52
2023-03-02T05:46:05.440Z,55
2023-03-02T06:01:05.484Z,51
2023-03-02T06:16:04.403Z,53
2023-03-02T06:31:04.641Z,46
2023-03-02T06:46:05.467Z,46
2023-03-02T07:01:04.727Z,45
2023-03-02T07:16:05.098Z,45
2023-03-02T07:31:05.541Z,45
2023-03-02T07:46:05.369Z,45
2023-03-02T08:01:04.790Z,55
2023-03-02T08:16:05.059Z,52
2023-03-02T08:31:04.584Z,41
2023-03-02T08:46:04.804Z,37
2023-03-02T09:01:05.344Z,33
2023-03-02T09:16:05.024Z,35
2023-03-02T09:31:05.325Z,32
2023-03-02T09:46:04.679Z,30
2023-03-02T10:01:04.620Z,19
2023-03-02T10:16:05.667Z,18
2023-03-02T10:31:05.538Z,16
2023-03-02T10:46:04.857Z,17
2023-03-02T11:01:05.020Z,17
2023-03-02T11:16:04.879Z,17
2023-03-02T11:31:05.108Z,17
2023-03-02T11:46:08.716Z,16
2023-03-02T12:01:04.863Z,15
2023-03-02T12:16:04.768Z,13
2023-03-02T12:31:04.571Z,12
2023-03-02T12:46:05.467Z,12
2023-03-02T13:01:04.789Z,12
2023-03-02T13:16:04.724Z,11
2023-03-02T13:31:05.553Z,11
2023-03-02T13:46:05.063Z,11
2023-03-02T14:01:05.323Z,12
2023-03-02T14:16:04.921Z,13
2023-03-02T14:31:05.246Z,12
2023-03-02T14:46:05.710Z,10
2023-03-02T15:01:05.122Z,9
2023-03-02T15:16:05.015Z,8
2023-03-02T15:31:04.464Z,9
2023-03-02T15:46:05.261Z,8
2023-03-02T16:01:04.677Z,10
2023-03-02T16:16:04.948Z,11
2023-03-02T16:31:04.809Z,21
2023-03-02T16:46:05.511Z,19
2023-03-02T17:01:04.760Z,24
2023-03-02T17:16:04.655Z,29
2023-03-02T17:31:04.670Z,35
2023-03-02T17:46:05.163Z,35
2023-03-02T18:01:05.073Z,37
2023-03-02T18:16:04.949Z,35
2023-03-02T18:31:05.126Z,34
2023-03-02T18:46:04.655Z,39
2023-03-02T19:01:04.630Z,38
2023-03-02T19:16:04.899Z,41
2023-03-02T19:31:04.960Z,34
2023-03-02T19:46:05.376Z,37
2023-03-02T20:01:05.024Z,38
2023-03-02T20:16:05.084Z,38
2023-03-02T20:31:05.095Z,43
2023-03-02T20:46:05.147Z,48
2023-03-02T21:01:05.381Z,52
2023-03-02T21:16:04.662Z,50
2023-03-02T21:31:05.016Z,50
2023-03-02T21:46:04.954Z,51
2023-03-02T22:01:04.860Z,52
2023-03-02T22:16:04.956Z,50
2023-03-02T22:31:04.953Z,50
2023-03-02T22:46:05.059Z,54
2023-03-02T23:01:05.130Z,54
2023-03-02T23:16:05.454Z,48
2023-03-02T23:31:04.771Z,49
2023-03-02T23:46:05.620Z,54
